Brookhaven, Mississippi
Current Conditions -  °F | °C
As of 5:15 PM on Tuesday 27 Jan 2015 (Local Time) from K1R7 Reporting Station
Clear Clear  
Wind Chill: 66°   Ceiling: Unl
Heat Index: 66°   Visibility: NA
Dew Point: 34°   Wind: 5mph
Humidity: 30%   Direction: 290°WNW
Pressure: 30.11"   Gusts: NA
Location:  31.58°N, 90.44°W
Report Text: K1R7 272315Z AUTO 29004KT CLR 19/01 A3011 RMK AO2
Loading
Personal Weather Stations






























Interactive Weather Map New forecast layout! Learn more

10-Day Weather Forecast

Advertisements
Track Severe Weather on mobile